Tropical Cyclones
[Index]
Main Index Home Page Stock Weather Photos Extreme Storms Discussion Storm News and Storm Chasing Reports Tropical Cyclones / Hurricanes / Typhoons Weather Data and Links Wild Fires / Bushfires Weather Observation Techniques Weather Picture Catalogue Tornado Pictures and Reports Stock Video Footage and DVDs for sale
Season 1992-1993 Tropical Cyclone KINA Track Map
Season 1992-1993 Summaries: [BoM-AU] [JTWC-AU] [JTWC-SIO] [JTWC-SPAC] [JTWC-SH]
<<- Previous TC | JTWC 1992-1993 Season | Next TC ->>

click for intensity scale information  Lat/long Grid: Show Hide

 Date Labels: Show Hide

Joint Typhoon Warning Centre Cyclone Data

Name: KINA

23 Dec 1992 06:00 UTC to 05 Jan 1993 00:00 UTC

    date/time    lat    long     hPa   cat  kts
1992-12-23 06    6.7   161.3                  15          
1992-12-23 12    6.7   162.1                  15          
1992-12-23 18    6.7   162.9                  15          
1992-12-24 00    6.8   163.7                  20          
1992-12-24 06    6.9   164.4                  20          
1992-12-24 12    7.0   165.0                  20          
1992-12-24 18    7.3   165.6                  20          
1992-12-25 00    7.5   166.3                  20          
1992-12-25 06    7.7   167.0                  20          
1992-12-25 12    8.1   167.6                  20          
1992-12-25 18    8.4   168.2                  25          
1992-12-26 00    8.7   168.7                  25          
1992-12-26 06    9.1   169.2                  30          
1992-12-26 12    9.5   169.6                  30          
1992-12-26 18   10.0   170.0                  35          
1992-12-27 00   10.5   170.3            1     40          
1992-12-27 06   11.1   170.5            1     45          
1992-12-27 12   11.6   170.6            1     50          
1992-12-27 18   12.1   170.8            2     55          
1992-12-28 00   12.5   171.1            2     60          
1992-12-28 06   12.9   171.4            2     65          
1992-12-28 12   13.2   171.7            3     75          
1992-12-28 18   13.5   172.0            3     90          
1992-12-29 00   13.8   172.3            4    105          
1992-12-29 06   14.1   172.6            4    120          
1992-12-29 12   14.3   172.7            4    120          
1992-12-29 18   14.5   172.7            4    120          
1992-12-30 00   14.7   172.6            4    120          
1992-12-30 06   14.8   172.5            4    120          
1992-12-30 12   14.9   172.4            4    120          
1992-12-30 18   15.0   172.4            4    115          
1992-12-31 00   15.1   172.5            4    105          
1992-12-31 06   15.2   172.6            4    100          
1992-12-31 12   15.4   172.8            3     95          
1992-12-31 18   15.6   173.1            3     90          
1993-01-01 00   15.8   173.6            3     85          
1993-01-01 06   15.9   174.2            3     85          
1993-01-01 12   16.0   174.9            3     85          
1993-01-01 18   16.1   175.6            3     80          
1993-01-02 00   16.3   176.4            3     85          
1993-01-02 06   16.6   177.3            3     90          
1993-01-02 12   17.1   178.2            3     95          
1993-01-02 18   17.7   179.2            3     95          
1993-01-03 00   18.5   179.7W           3     90          
1993-01-03 06   19.3   178.4W           3     85          
1993-01-03 12   20.4   177.0W           3     80          
1993-01-03 18   21.7   175.7W           3     75          
1993-01-04 00   22.9   174.3W           2     65          
1993-01-04 06   24.3   173.0W           2     60          
1993-01-04 12   25.8   171.7W           2     55          
1993-01-04 18   28.1   170.6W           1     50          
1993-01-05 00   30.5   169.7W           1     40          
Winds are 1-min average.

Tropical cyclone tracks developed by Michael Bath using data from the Joint Typhoon Warning Centre Best Tracks and Google Maps.


[Australian Severe Weather index] [Copyright Notice] [Email Contacts] [Search This Site] [Privacy Policy]
Document: tropical_cyclone_kina.htm Updated: 18 September 2016